createdAt,value
2023-04-08T00:00:30.569Z,41.75
2023-04-08T00:02:58.961Z,38.35
2023-04-08T00:05:27.265Z,38.75
2023-04-08T00:07:55.654Z,40.38
2023-04-08T00:10:25.063Z,39.95
2023-04-08T00:12:53.586Z,41.05
2023-04-08T00:15:23.600Z,40.05
2023-04-08T00:17:53.694Z,43.22
2023-04-08T00:20:22.307Z,39.58
2023-04-08T00:22:50.689Z,37.17
2023-04-08T00:25:18.928Z,39.50
2023-04-08T00:27:47.188Z,43.53
2023-04-08T00:30:15.661Z,42.20
2023-04-08T00:32:47.548Z,36.08
2023-04-08T00:35:16.759Z,40.92
2023-04-08T00:37:45.001Z,37.15
2023-04-08T00:40:13.632Z,41.97
2023-04-08T00:42:42.031Z,39.28
2023-04-08T00:45:11.258Z,46.08
2023-04-08T00:47:39.801Z,46.40
2023-04-08T00:50:11.468Z,49.83
2023-04-08T00:52:39.802Z,46.47
2023-04-08T00:55:08.812Z,41.80
2023-04-08T00:57:37.578Z,38.70
2023-04-08T01:00:06.967Z,36.53
2023-04-08T01:02:43.258Z,32.42
2023-04-08T01:05:17.046Z,33.88
2023-04-08T01:07:48.633Z,27.65
2023-04-08T01:10:19.652Z,29.90
2023-04-08T01:12:53.033Z,26.92
2023-04-08T01:15:22.153Z,28.92
2023-04-08T01:17:54.185Z,28.92
2023-04-08T01:20:25.254Z,28.60
2023-04-08T01:23:04.996Z,30.05
2023-04-08T01:25:34.723Z,26.33
2023-04-08T01:28:08.474Z,29.02
2023-04-08T01:30:37.782Z,32.28
2023-04-08T01:33:07.448Z,34.95
2023-04-08T01:35:37.015Z,32.05
2023-04-08T01:38:08.195Z,33.88
2023-04-08T01:40:39.152Z,29.88
2023-04-08T01:43:10.999Z,34.08
2023-04-08T01:45:40.108Z,33.95
2023-04-08T01:48:09.327Z,34.95
2023-04-08T01:50:39.443Z,31.30
2023-04-08T01:53:10.983Z,33.53
2023-04-08T01:55:42.509Z,34.42
2023-04-08T01:58:15.542Z,35.15
2023-04-08T02:00:44.514Z,31.27
2023-04-08T02:03:18.786Z,30.83
2023-04-08T02:05:48.110Z,32.97
2023-04-08T02:08:16.474Z,30.85
2023-04-08T02:10:44.785Z,33.25
2023-04-08T02:13:14.493Z,30.60
2023-04-08T02:15:53.568Z,31.33
2023-04-08T02:18:28.014Z,34.05
2023-04-08T02:21:01.813Z,33.38
2023-04-08T02:23:34.414Z,32.42
2023-04-08T02:26:05.919Z,35.60
2023-04-08T02:28:36.692Z,30.33
2023-04-08T02:31:07.069Z,31.35
2023-04-08T02:33:37.172Z,32.92
2023-04-08T02:36:07.649Z,32.60
2023-04-08T02:38:36.524Z,32.58
2023-04-08T02:41:04.960Z,32.65
2023-04-08T02:43:33.249Z,30.30
2023-04-08T02:46:08.550Z,29.73
2023-04-08T02:48:38.162Z,30.08
2023-04-08T02:51:06.345Z,28.98
2023-04-08T02:53:34.522Z,29.88
2023-04-08T02:56:02.791Z,31.45
2023-04-08T02:58:31.006Z,31.30
2023-04-08T03:00:59.164Z,27.10
2023-04-08T03:03:29.917Z,30.48
2023-04-08T03:05:59.160Z,29.08
2023-04-08T03:08:27.468Z,32.53
2023-04-08T03:10:55.815Z,31.00
2023-04-08T03:13:24.062Z,31.95
2023-04-08T03:15:52.404Z,31.30
2023-04-08T03:18:20.713Z,31.27
2023-04-08T03:20:50.322Z,30.20
2023-04-08T03:23:18.720Z,31.00
2023-04-08T03:25:46.988Z,30.80
2023-04-08T03:28:15.544Z,32.75
2023-04-08T03:30:43.820Z,31.85
2023-04-08T03:33:12.108Z,34.58
2023-04-08T03:35:40.435Z,35.13
2023-04-08T03:38:10.193Z,34.50
2023-04-08T03:40:38.520Z,36.58
2023-04-08T03:43:08.897Z,32.28
2023-04-08T03:45:37.119Z,31.90
2023-04-08T03:48:05.732Z,31.92
2023-04-08T03:50:33.961Z,41.10
2023-04-08T03:53:02.567Z,37.17
2023-04-08T03:55:32.157Z,35.95
2023-04-08T03:58:00.470Z,36.03
2023-04-08T04:00:28.874Z,35.15
2023-04-08T04:02:57.222Z,32.90
2023-04-08T04:05:25.518Z,35.80
2023-04-08T04:07:53.750Z,33.17
2023-04-08T04:10:22.056Z,39.65
2023-04-08T04:12:52.941Z,40.53
2023-04-08T04:15:21.083Z,50.63
2023-04-08T04:17:50.367Z,41.03
2023-04-08T04:20:18.819Z,36.85
2023-04-08T04:22:47.283Z,39.47
2023-04-08T04:25:15.630Z,40.33
2023-04-08T04:27:43.906Z,37.53
2023-04-08T04:30:15.557Z,44.22
2023-04-08T04:32:44.099Z,41.75
2023-04-08T04:35:12.729Z,37.97
2023-04-08T04:37:41.075Z,40.42
2023-04-08T04:40:10.102Z,38.80
2023-04-08T04:42:38.410Z,36.97
2023-04-08T04:45:07.616Z,42.22
2023-04-08T04:47:37.248Z,39.55
2023-04-08T04:50:06.902Z,42.78
2023-04-08T04:52:36.996Z,39.55
2023-04-08T04:55:06.081Z,39.97
2023-04-08T04:57:34.349Z,42.78
2023-04-08T05:00:05.145Z,44.13
2023-04-08T05:02:33.965Z,36.33
2023-04-08T05:05:03.736Z,41.63
2023-04-08T05:07:32.141Z,41.92
2023-04-08T05:10:00.555Z,39.45
2023-04-08T05:12:28.810Z,40.85
2023-04-08T05:14:57.078Z,44.15
2023-04-08T05:17:25.478Z,39.33
2023-04-08T05:19:53.928Z,37.72
2023-04-08T05:22:23.523Z,37.03
2023-04-08T05:24:51.732Z,35.78
2023-04-08T05:27:21.731Z,34.42
2023-04-08T05:29:50.084Z,40.30
2023-04-08T05:32:18.486Z,31.92
2023-04-08T05:34:46.719Z,29.33
2023-04-08T05:37:14.963Z,30.67
2023-04-08T05:39:44.648Z,26.25
2023-04-08T05:42:13.892Z,28.45
2023-04-08T05:44:43.965Z,23.40
2023-04-08T05:47:13.187Z,24.95
2023-04-08T05:49:41.887Z,26.80
2023-04-08T05:52:10.079Z,23.98
2023-04-08T05:54:38.394Z,26.27
2023-04-08T05:57:10.243Z,30.73
2023-04-08T05:59:38.734Z,27.73
2023-04-08T06:02:07.118Z,26.98
2023-04-08T06:04:35.733Z,21.83
2023-04-08T06:07:04.716Z,27.08
2023-04-08T06:09:36.484Z,23.65
2023-04-08T06:12:05.486Z,23.35
2023-04-08T06:14:35.040Z,28.38
2023-04-08T06:17:03.475Z,21.05
2023-04-08T06:19:32.292Z,28.35
2023-04-08T06:22:00.604Z,24.38
2023-04-08T06:24:29.510Z,21.58
2023-04-08T06:26:57.897Z,27.90
2023-04-08T06:29:26.055Z,21.20
2023-04-08T06:31:55.976Z,22.95
2023-04-08T06:34:24.194Z,21.67
2023-04-08T06:36:52.643Z,21.33
2023-04-08T06:39:21.663Z,26.23
2023-04-08T06:41:50.080Z,24.02
2023-04-08T06:44:34.532Z,24.45
2023-04-08T06:47:04.277Z,26.67
2023-04-08T06:49:32.572Z,29.20
2023-04-08T06:52:00.975Z,22.75
2023-04-08T06:54:29.273Z,23.27
2023-04-08T06:56:57.506Z,26.55
2023-04-08T06:59:25.837Z,22.63
2023-04-08T07:01:54.172Z,24.77
2023-04-08T07:04:23.971Z,27.20
2023-04-08T07:06:52.245Z,27.13
2023-04-08T07:09:20.506Z,24.98
2023-04-08T07:11:48.777Z,27.48
2023-04-08T07:14:16.923Z,25.80
2023-04-08T07:16:45.145Z,27.83
2023-04-08T07:19:13.433Z,27.00
2023-04-08T07:21:43.120Z,25.98
2023-04-08T07:24:11.290Z,27.55
2023-04-08T07:26:39.938Z,21.38
2023-04-08T07:29:08.107Z,23.02
2023-04-08T07:31:36.407Z,27.08
2023-04-08T07:34:04.665Z,27.27
2023-04-08T07:36:32.991Z,22.88
2023-04-08T07:39:02.755Z,22.98
2023-04-08T07:41:31.064Z,24.92
2023-04-08T07:43:59.249Z,22.88
2023-04-08T07:46:27.553Z,25.05
2023-04-08T07:48:56.069Z,23.38
2023-04-08T07:51:24.347Z,22.48
2023-04-08T07:53:52.533Z,23.20
2023-04-08T07:56:22.535Z,21.35
2023-04-08T07:58:53.415Z,20.35
2023-04-08T08:01:23.653Z,22.48
2023-04-08T08:03:53.752Z,21.13
2023-04-08T08:06:22.376Z,20.15
2023-04-08T08:08:50.789Z,20.58
2023-04-08T08:11:19.013Z,20.83
2023-04-08T08:13:48.932Z,20.38
2023-04-08T08:16:17.502Z,19.23
2023-04-08T08:18:45.854Z,20.80
2023-04-08T08:21:14.036Z,22.20
2023-04-08T08:23:42.250Z,21.42
2023-04-08T08:26:11.895Z,20.27
2023-04-08T08:28:40.569Z,21.17
2023-04-08T08:31:10.481Z,20.30
2023-04-08T08:33:38.736Z,21.63
2023-04-08T08:36:07.451Z,19.65
2023-04-08T08:38:35.899Z,23.77
2023-04-08T08:41:04.836Z,19.45
2023-04-08T08:43:34.672Z,22.95
2023-04-08T08:46:03.896Z,21.80
2023-04-08T08:48:34.177Z,21.40
2023-04-08T08:51:02.732Z,22.50
2023-04-08T08:53:35.088Z,22.63
2023-04-08T08:58:35.734Z,21.42
2023-04-08T09:01:04.256Z,20.20
2023-04-08T09:03:34.180Z,21.52
2023-04-08T09:06:03.989Z,22.40
2023-04-08T09:08:32.977Z,21.50
2023-04-08T09:11:17.370Z,21.48
2023-04-08T09:13:47.120Z,21.60
2023-04-08T09:16:18.217Z,21.92
2023-04-08T09:18:49.931Z,26.73
2023-04-08T09:21:19.212Z,21.65
2023-04-08T09:23:49.396Z,22.77
2023-04-08T09:26:22.073Z,21.58
2023-04-08T09:29:02.472Z,23.33
2023-04-08T09:31:41.283Z,19.55
2023-04-08T09:34:14.713Z,19.25
2023-04-08T09:36:44.665Z,22.08
2023-04-08T09:39:12.980Z,20.42
2023-04-08T09:41:41.866Z,23.13
2023-04-08T09:44:11.869Z,21.20
2023-04-08T09:46:48.191Z,19.17
2023-04-08T09:49:27.160Z,21.60
2023-04-08T09:52:06.103Z,18.73
2023-04-08T09:54:43.234Z,19.57
2023-04-08T09:57:16.427Z,20.73
2023-04-08T09:59:51.372Z,19.83
2023-04-08T10:02:26.955Z,17.77
2023-04-08T10:05:00.338Z,19.60
2023-04-08T10:07:28.725Z,16.73
2023-04-08T10:09:58.666Z,17.53
2023-04-08T10:12:27.030Z,18.43
2023-04-08T10:15:26.171Z,19.37
2023-04-08T10:17:54.689Z,18.40
2023-04-08T10:20:45.175Z,19.23
2023-04-08T10:23:14.818Z,18.57
2023-04-08T10:25:44.930Z,17.80
2023-04-08T10:28:27.291Z,18.10
2023-04-08T10:30:56.804Z,17.50
2023-04-08T10:33:32.802Z,17.87
2023-04-08T10:36:11.338Z,19.00
2023-04-08T10:38:39.920Z,17.53
2023-04-08T10:41:08.476Z,19.83
2023-04-08T10:43:37.722Z,18.37
2023-04-08T10:46:06.508Z,18.83
2023-04-08T10:48:34.876Z,18.53
2023-04-08T10:51:05.825Z,17.77
2023-04-08T10:53:35.569Z,19.13
2023-04-08T10:56:08.031Z,21.27
2023-04-08T10:58:36.910Z,18.97
2023-04-08T11:01:06.898Z,21.00
2023-04-08T11:03:36.320Z,19.40
2023-04-08T11:06:07.572Z,21.13
2023-04-08T11:08:37.817Z,17.67
2023-04-08T11:11:09.382Z,18.63
2023-04-08T11:13:38.298Z,16.17
2023-04-08T11:16:17.805Z,18.37
2023-04-08T11:18:48.197Z,18.13
2023-04-08T11:21:18.488Z,18.30
2023-04-08T11:23:47.008Z,18.37
2023-04-08T11:26:16.328Z,19.67
2023-04-08T11:28:45.564Z,17.57
2023-04-08T11:31:14.706Z,18.87
2023-04-08T11:33:47.548Z,18.07
2023-04-08T11:36:19.075Z,16.37
2023-04-08T11:38:48.354Z,21.73
2023-04-08T11:41:17.537Z,16.40
2023-04-08T11:43:56.574Z,15.70
2023-04-08T11:46:25.665Z,15.53
2023-04-08T11:49:06.364Z,14.17
2023-04-08T11:51:37.958Z,13.40
2023-04-08T11:54:07.617Z,16.40
2023-04-08T11:56:47.106Z,14.60
2023-04-08T11:59:15.629Z,15.37
2023-04-08T12:01:43.857Z,14.17
2023-04-08T12:04:12.425Z,14.80
2023-04-08T12:06:43.602Z,14.73
2023-04-08T12:09:11.873Z,15.00
2023-04-08T12:11:40.117Z,14.00
2023-04-08T12:14:08.549Z,14.30
2023-04-08T12:16:37.105Z,14.07
2023-04-08T12:19:05.598Z,14.50
2023-04-08T12:21:34.958Z,13.97
2023-04-08T12:24:04.722Z,14.90
2023-04-08T12:26:32.845Z,16.90
2023-04-08T12:29:01.680Z,13.73
2023-04-08T12:31:29.936Z,16.30
2023-04-08T12:33:58.277Z,14.15
2023-04-08T12:36:27.263Z,12.57
2023-04-08T12:38:55.623Z,13.50
2023-04-08T12:41:25.281Z,13.10
2023-04-08T12:43:53.664Z,12.97
2023-04-08T12:46:21.937Z,12.50
2023-04-08T12:49:02.960Z,12.37
2023-04-08T12:51:32.436Z,13.40
2023-04-08T12:54:02.064Z,12.23
2023-04-08T12:56:32.054Z,13.68
2023-04-08T12:59:01.126Z,14.05
2023-04-08T13:01:30.769Z,12.95
2023-04-08T13:03:59.459Z,12.93
2023-04-08T13:06:28.192Z,14.13
2023-04-08T13:08:56.817Z,12.77
2023-04-08T13:11:25.024Z,13.05
2023-04-08T13:13:54.652Z,14.18
2023-04-08T13:16:22.889Z,13.13
2023-04-08T13:18:52.646Z,12.82
2023-04-08T13:21:21.499Z,13.27
2023-04-08T13:23:49.774Z,13.90
2023-04-08T13:26:18.020Z,14.52
2023-04-08T13:28:56.574Z,13.80
2023-04-08T13:31:27.259Z,13.23
2023-04-08T13:33:57.942Z,14.73
2023-04-08T13:36:26.885Z,15.23
2023-04-08T13:38:55.855Z,14.50
2023-04-08T13:41:25.607Z,12.80
2023-04-08T13:43:53.852Z,13.97
2023-04-08T13:46:22.587Z,11.60
2023-04-08T13:48:53.084Z,12.00
2023-04-08T13:51:22.348Z,11.10
2023-04-08T13:53:50.827Z,11.50
2023-04-08T13:56:19.328Z,11.10
2023-04-08T13:58:55.203Z,12.30
2023-04-08T14:01:25.457Z,10.90
2023-04-08T14:03:55.130Z,11.33
2023-04-08T14:06:23.453Z,13.30
2023-04-08T14:08:51.921Z,9.93
2023-04-08T14:11:21.818Z,11.73
2023-04-08T14:13:50.394Z,12.83
2023-04-08T14:16:19.093Z,14.43
2023-04-08T14:18:47.825Z,14.87
2023-04-08T14:21:18.750Z,12.93
2023-04-08T14:23:47.381Z,13.60
2023-04-08T14:26:16.300Z,12.07
2023-04-08T14:28:44.822Z,11.83
2023-04-08T14:31:13.729Z,13.00
2023-04-08T14:33:42.575Z,12.23
2023-04-08T14:36:11.666Z,12.50
2023-04-08T14:38:41.657Z,12.73
2023-04-08T14:41:10.378Z,12.85
2023-04-08T14:43:38.663Z,13.48
2023-04-08T14:46:07.249Z,14.10
2023-04-08T14:48:35.552Z,13.98
2023-04-08T14:51:03.724Z,12.55
2023-04-08T14:53:32.104Z,13.52
2023-04-08T14:56:02.466Z,15.93
2023-04-08T14:58:30.743Z,14.40
2023-04-08T15:00:58.988Z,13.32
2023-04-08T15:03:28.008Z,13.73
2023-04-08T15:05:59.948Z,12.55
2023-04-08T15:08:28.511Z,14.02
2023-04-08T15:10:57.109Z,13.77
2023-04-08T15:13:26.663Z,12.40
2023-04-08T15:15:55.627Z,11.15
2023-04-08T15:18:24.348Z,11.45
2023-04-08T15:20:52.692Z,12.27
2023-04-08T15:23:21.555Z,12.23
2023-04-08T15:25:49.953Z,13.25
2023-04-08T15:28:18.067Z,11.32
2023-04-08T15:30:47.716Z,11.48
2023-04-08T15:33:16.743Z,12.02
2023-04-08T15:35:47.844Z,11.48
2023-04-08T15:38:16.154Z,11.05
2023-04-08T15:40:45.573Z,12.13
2023-04-08T15:43:15.793Z,12.60
2023-04-08T15:45:46.461Z,13.35
2023-04-08T15:48:15.952Z,14.00
2023-04-08T15:50:44.203Z,14.77
2023-04-08T15:53:12.356Z,14.98
2023-04-08T15:55:41.151Z,16.90
2023-04-08T15:58:09.327Z,16.95
2023-04-08T16:00:37.562Z,17.85
2023-04-08T16:03:08.776Z,16.98
2023-04-08T16:05:39.793Z,17.02
2023-04-08T16:08:08.301Z,19.45
2023-04-08T16:10:36.607Z,18.45
2023-04-08T16:13:04.861Z,17.20
2023-04-08T16:15:34.152Z,20.63
2023-04-08T16:18:04.552Z,19.30
2023-04-08T16:20:33.281Z,19.77
2023-04-08T16:23:02.883Z,19.02
2023-04-08T16:25:31.930Z,17.67
2023-04-08T16:28:00.560Z,17.40
2023-04-08T16:30:29.649Z,16.75
2023-04-08T16:32:58.176Z,15.63
2023-04-08T16:35:26.544Z,16.35
2023-04-08T16:37:54.775Z,15.65
2023-04-08T16:40:24.953Z,17.02
2023-04-08T16:42:53.288Z,16.40
2023-04-08T16:45:22.313Z,17.10
2023-04-08T16:47:51.433Z,17.33
2023-04-08T16:50:21.819Z,17.63
2023-04-08T16:52:50.573Z,19.88
2023-04-08T16:55:19.578Z,20.38
2023-04-08T16:57:49.941Z,20.23
2023-04-08T17:00:21.015Z,20.73
2023-04-08T17:02:50.444Z,17.60
2023-04-08T17:05:19.752Z,19.75
2023-04-08T17:07:48.013Z,18.08
2023-04-08T17:10:16.576Z,20.48
2023-04-08T17:12:45.493Z,19.80
2023-04-08T17:15:15.865Z,20.50
2023-04-08T17:17:44.256Z,19.85
2023-04-08T17:20:13.558Z,21.23
2023-04-08T17:22:42.066Z,20.65
2023-04-08T17:25:11.640Z,18.52
2023-04-08T17:27:39.799Z,19.67
2023-04-08T17:30:11.305Z,17.92
2023-04-08T17:32:41.299Z,17.90
2023-04-08T17:35:10.226Z,17.15
2023-04-08T17:37:38.300Z,16.55
2023-04-08T17:40:07.890Z,19.95
2023-04-08T17:42:36.064Z,26.30
2023-04-08T17:45:04.843Z,26.42
2023-04-08T17:47:33.329Z,25.00
2023-04-08T17:50:03.774Z,23.05
2023-04-08T17:52:32.811Z,22.65
2023-04-08T17:55:01.257Z,28.50
2023-04-08T17:57:30.349Z,28.70
2023-04-08T17:59:59.406Z,32.53
2023-04-08T18:02:29.040Z,28.95
2023-04-08T18:04:59.283Z,29.92
2023-04-08T18:07:28.961Z,27.58
2023-04-08T18:09:58.047Z,30.25
2023-04-08T18:12:27.128Z,24.95
2023-04-08T18:14:55.505Z,24.35
2023-04-08T18:17:24.381Z,34.17
2023-04-08T18:19:53.702Z,29.17
2023-04-08T18:22:22.691Z,34.50
2023-04-08T18:24:53.089Z,28.58
2023-04-08T18:27:22.129Z,31.48
2023-04-08T18:29:54.142Z,41.60
2023-04-08T18:32:23.248Z,32.08
2023-04-08T18:34:52.334Z,36.42
2023-04-08T18:37:21.191Z,41.85
2023-04-08T18:39:50.304Z,37.13
2023-04-08T18:42:21.710Z,36.47
2023-04-08T18:44:50.856Z,39.40
2023-04-08T18:47:20.130Z,35.47
2023-04-08T18:49:49.083Z,40.63
2023-04-08T18:52:17.669Z,36.90
2023-04-08T18:54:48.953Z,41.42
2023-04-08T18:57:17.701Z,40.60
2023-04-08T18:59:49.884Z,37.33
2023-04-08T19:02:19.121Z,36.38
2023-04-08T19:04:47.969Z,32.47
2023-04-08T19:07:17.097Z,34.97
2023-04-08T19:09:45.559Z,35.63
2023-04-08T19:12:14.597Z,32.08
2023-04-08T19:14:43.077Z,29.83
2023-04-08T19:17:12.578Z,29.10
2023-04-08T19:19:40.811Z,34.47
2023-04-08T19:22:09.201Z,30.70
2023-04-08T19:24:37.795Z,35.50
2023-04-08T19:27:06.882Z,40.80
2023-04-08T19:29:35.366Z,40.58
2023-04-08T19:32:04.963Z,44.42
2023-04-08T19:34:38.957Z,42.88
2023-04-08T19:37:07.399Z,33.17
2023-04-08T19:39:36.398Z,35.42
2023-04-08T19:42:05.788Z,32.28
2023-04-08T19:44:35.136Z,29.92
2023-04-08T19:47:03.651Z,32.53
2023-04-08T19:49:32.935Z,29.25
2023-04-08T19:52:03.803Z,31.25
2023-04-08T19:54:33.132Z,30.80
2023-04-08T19:57:01.460Z,32.25
2023-04-08T19:59:30.513Z,30.30
2023-04-08T20:01:59.583Z,29.38
2023-04-08T20:04:28.631Z,29.08
2023-04-08T20:06:58.045Z,28.00
2023-04-08T20:09:28.426Z,28.90
2023-04-08T20:12:04.312Z,34.20
2023-04-08T20:14:33.017Z,28.15
2023-04-08T20:17:01.962Z,30.17
2023-04-08T20:19:30.533Z,27.15
2023-04-08T20:21:59.075Z,32.00
2023-04-08T20:24:29.007Z,34.65
2023-04-08T20:26:57.156Z,27.27
2023-04-08T20:29:25.368Z,30.35
2023-04-08T20:31:54.461Z,29.15
2023-04-08T20:34:23.604Z,28.63
2023-04-08T20:36:52.938Z,30.95
2023-04-08T20:39:22.504Z,27.02
2023-04-08T20:41:52.949Z,31.35
2023-04-08T20:44:21.380Z,28.95
2023-04-08T20:46:50.278Z,26.95
2023-04-08T20:49:20.176Z,26.48
2023-04-08T20:51:49.284Z,26.40
2023-04-08T20:54:18.043Z,30.95
2023-04-08T20:56:47.071Z,34.13
2023-04-08T20:59:16.867Z,29.73
2023-04-08T21:01:45.018Z,26.73
2023-04-08T21:04:16.819Z,29.85
2023-04-08T21:07:00.109Z,30.40
2023-04-08T21:09:39.783Z,31.30
2023-04-08T21:12:14.944Z,30.73
2023-04-08T21:14:50.877Z,33.97
2023-04-08T21:17:21.660Z,31.88
2023-04-08T21:19:57.798Z,32.78
2023-04-08T21:22:45.049Z,32.30
2023-04-08T21:25:21.553Z,32.38
2023-04-08T21:27:59.102Z,27.58
2023-04-08T21:30:46.669Z,33.25
2023-04-08T21:33:21.573Z,29.45
2023-04-08T21:35:53.797Z,26.98
2023-04-08T21:38:27.132Z,26.58
2023-04-08T21:41:02.769Z,32.95
2023-04-08T21:43:42.462Z,28.02
2023-04-08T21:46:24.725Z,24.25
2023-04-08T21:49:06.157Z,26.45
2023-04-08T21:51:41.434Z,26.42
2023-04-08T21:54:16.976Z,29.30
2023-04-08T21:56:46.222Z,29.58
2023-04-08T21:59:14.472Z,29.65
2023-04-08T22:01:44.213Z,31.33
2023-04-08T22:04:12.653Z,30.33
2023-04-08T22:06:41.109Z,30.27
2023-04-08T22:09:09.458Z,31.30
2023-04-08T22:11:37.737Z,29.40
2023-04-08T22:14:05.997Z,34.00
2023-04-08T22:16:34.319Z,30.60
2023-04-08T22:19:03.983Z,28.40
2023-04-08T22:21:32.225Z,28.60
2023-04-08T22:24:00.621Z,30.02
2023-04-08T22:26:28.896Z,25.15
2023-04-08T22:28:57.202Z,29.08
2023-04-08T22:31:25.629Z,24.63
2023-04-08T22:33:53.898Z,24.25
2023-04-08T22:36:23.381Z,24.65
2023-04-08T22:38:51.808Z,22.60
2023-04-08T22:41:20.888Z,24.20
2023-04-08T22:43:49.753Z,26.13
2023-04-08T22:46:18.250Z,24.40
2023-04-08T22:48:47.137Z,28.80
2023-04-08T22:51:15.738Z,26.77
2023-04-08T22:53:45.589Z,30.88
2023-04-08T22:56:13.698Z,37.25
2023-04-08T22:58:42.002Z,38.88
2023-04-08T23:01:14.907Z,34.35
2023-04-08T23:03:43.192Z,41.00
2023-04-08T23:06:11.571Z,45.17
2023-04-08T23:08:40.494Z,43.05
2023-04-08T23:11:10.541Z,34.70
2023-04-08T23:13:38.815Z,35.65
2023-04-08T23:16:07.427Z,36.70
2023-04-08T23:18:35.758Z,34.80
2023-04-08T23:21:03.953Z,29.73
2023-04-08T23:23:32.520Z,30.48
2023-04-08T23:26:00.665Z,24.35
2023-04-08T23:28:30.366Z,27.45
2023-04-08T23:30:59.013Z,27.48
2023-04-08T23:33:27.400Z,28.20
2023-04-08T23:35:55.759Z,25.38
2023-04-08T23:38:24.007Z,25.45
2023-04-08T23:40:52.191Z,23.90
2023-04-08T23:43:20.414Z,24.90
2023-04-08T23:45:50.007Z,25.67
2023-04-08T23:48:18.217Z,21.08
2023-04-08T23:50:46.380Z,22.30
2023-04-08T23:53:14.622Z,24.30
2023-04-08T23:55:42.803Z,24.35
2023-04-08T23:58:11.619Z,23.92
